Time;durP1;ratioP1;P1;durP2;ratioP2;P2;SDS_P1;SDS_P2;PMS_P1;PMS_P2;Temp;Humidity;BMP_temperature;BMP_pressure;BME280_temperature;BME280_humidity;BME280_pressure;Samples;Min_cycle;Max_cycle;Signal;HPM_P1;HPM_P2
2021/12/31 00:00:29;;;;;;;1.30;0.85;;;;;;;10.37;100.00;96535.09;1014101;29;20698;-67
2021/12/31 00:01:00;;;;;;;1.33;0.98;;;;;;;10.35;100.00;96533.72;1014309;29;20091;-66
2021/12/31 00:01:30;;;;;;;1.10;1.00;;;;;;;10.27;100.00;96527.06;1011120;29;20063;-65
2021/12/31 00:02:01;;;;;;;1.25;1.10;;;;;;;10.35;100.00;96536.34;1014600;29;20048;-67
2021/12/31 00:02:31;;;;;;;1.30;0.98;;;;;;;10.34;100.00;96540.03;1007404;29;20725;-68
2021/12/31 00:03:02;;;;;;;1.20;1.10;;;;;;;10.35;100.00;96544.22;1008865;29;20045;-66
2021/12/31 00:03:32;;;;;;;1.20;1.08;;;;;;;10.28;100.00;96527.88;1015267;29;20036;-67
2021/12/31 00:04:03;;;;;;;2.55;1.15;;;;;;;10.34;100.00;96542.66;1014772;29;20044;-67
2021/12/31 00:04:34;;;;;;;0.85;0.82;;;;;;;10.35;100.00;96544.22;1014179;29;20517;-67
2021/12/31 00:05:04;;;;;;;1.73;1.33;;;;;;;10.31;100.00;96538.66;1018540;29;20461;-66
2021/12/31 00:05:35;;;;;;;2.13;1.00;;;;;;;10.33;100.00;96541.06;1011213;29;20020;-66
2021/12/31 00:06:06;;;;;;;1.60;1.05;;;;;;;10.31;100.00;96541.28;1011126;29;20024;-67
2021/12/31 00:06:36;;;;;;;1.42;1.00;;;;;;;10.29;100.00;96542.56;1014746;29;20036;-66
2021/12/31 00:07:07;;;;;;;1.77;1.40;;;;;;;10.26;100.00;96535.16;1018259;29;20051;-67
2021/12/31 00:07:38;;;;;;;1.95;1.42;;;;;;;10.31;100.00;96537.88;1010184;29;20549;-67
2021/12/31 00:08:08;;;;;;;2.08;1.05;;;;;;;10.33;100.00;96534.00;1014310;29;20027;-67
2021/12/31 00:08:39;;;;;;;1.17;0.80;;;;;;;10.35;100.00;96538.97;1018349;29;20338;-67
2021/12/31 00:09:09;;;;;;;1.67;1.13;;;;;;;10.27;100.00;96534.94;1014002;29;20024;-67
2021/12/31 00:09:40;;;;;;;1.00;0.90;;;;;;;10.31;100.00;96541.28;1013477;29;20039;-67
2021/12/31 00:10:10;;;;;;;1.83;1.10;;;;;;;10.29;100.00;96538.09;1009886;29;20429;-67
2021/12/31 00:10:41;;;;;;;1.20;1.08;;;;;;;10.28;100.00;96538.34;1010379;29;20236;-67
2021/12/31 00:11:12;;;;;;;1.10;0.85;;;;;;;10.21;100.00;96533.25;1007263;29;20037;-67
2021/12/31 00:11:42;;;;;;;1.40;1.30;;;;;;;10.29;100.00;96545.19;1002121;29;20301;-67
2021/12/31 00:12:13;;;;;;;2.67;1.08;;;;;;;10.31;100.00;96545.75;999402;29;20029;-66
2021/12/31 00:12:44;;;;;;;1.40;1.25;;;;;;;10.29;100.00;96545.19;1009890;29;20052;-67
2021/12/31 00:13:14;;;;;;;1.83;1.00;;;;;;;10.27;100.00;96544.66;1016134;29;20039;-67
2021/12/31 00:13:47;;;;;;;1.10;1.00;;;;;;;10.27;100.00;96547.28;1014850;29;20036;-66
2021/12/31 00:14:19;;;;;;;1.08;0.98;;;;;;;10.23;100.00;96541.69;1010279;29;20104;-68
2021/12/31 00:14:50;;;;;;;2.05;1.10;;;;;;;10.27;100.00;96547.28;1010792;29;20268;-67
2021/12/31 00:15:20;;;;;;;1.35;0.93;;;;;;;10.24;100.00;96547.72;1008852;29;20269;-64
2021/12/31 00:15:51;;;;;;;2.05;1.25;;;;;;;10.22;100.00;96544.53;1010619;29;20024;-67
2021/12/31 00:16:22;;;;;;;1.27;1.10;;;;;;;10.22;100.00;96540.06;1006848;29;20032;-65
2021/12/31 00:16:52;;;;;;;1.27;1.00;;;;;;;10.29;100.00;96545.19;1006722;29;20033;-67
2021/12/31 00:17:23;;;;;;;1.00;0.90;;;;;;;10.23;100.00;96538.25;1006824;29;20033;-67
2021/12/31 00:17:53;;;;;;;1.20;1.00;;;;;;;10.28;100.00;96546.22;1010166;29;20031;-64
2021/12/31 00:18:24;;;;;;;1.00;0.90;;;;;;;10.28;100.00;96546.22;1011692;29;20063;-67
2021/12/31 00:18:54;;;;;;;2.08;1.02;;;;;;;10.26;100.00;96535.16;1010675;29;20111;-66
2021/12/31 00:19:28;;;;;;;3.33;1.30;;;;;;;10.28;100.00;96546.22;1011820;29;20044;-67
2021/12/31 00:20:03;;;;;;;1.85;1.10;;;;;;;10.27;100.00;96542.03;1006792;29;20181;-67
2021/12/31 00:20:35;;;;;;;1.65;1.00;;;;;;;10.27;100.00;96547.28;1006499;29;20290;-66
2021/12/31 00:21:06;;;;;;;1.02;0.93;;;;;;;10.31;100.00;96545.75;1006753;29;20297;-67
2021/12/31 00:21:37;;;;;;;1.20;1.00;;;;;;;10.31;100.00;96548.38;1008923;29;20993;-67
2021/12/31 00:22:41;;;;;;;1.30;1.20;;;;;;;10.31;100.00;96543.91;1011455;29;20043;-67
2021/12/31 00:23:09;;;;;;;1.27;0.98;;;;;;;10.33;100.00;96549.72;1019087;29;20294;-70
2021/12/31 00:23:42;;;;;;;1.13;1.02;;;;;;;10.31;100.00;96543.13;1010801;29;20280;-66
2021/12/31 00:24:12;;;;;;;2.83;0.88;;;;;;;10.32;100.00;96547.34;1018982;29;20267;-67
2021/12/31 00:24:42;;;;;;;2.08;1.10;;;;;;;10.31;100.00;96546.53;1018443;29;20342;-67
2021/12/31 00:25:13;;;;;;;1.50;1.10;;;;;;;10.35;100.00;96546.84;1014693;29;20036;-64
2021/12/31 00:25:44;;;;;;;2.08;1.05;;;;;;;10.34;100.00;96547.91;1018766;29;20032;-66
2021/12/31 00:26:15;;;;;;;1.20;1.10;;;;;;;10.31;100.00;96548.38;1022777;29;20031;-67
2021/12/31 00:26:45;;;;;;;2.83;1.23;;;;;;;10.27;100.00;96536.78;1018601;29;20267;-68
2021/12/31 00:27:15;;;;;;;1.05;0.95;;;;;;;10.20;100.00;96531.66;1018973;29;20405;-70
2021/12/31 00:27:46;;;;;;;1.83;1.17;;;;;;;10.35;100.00;96539.78;1014723;29;20028;-66
2021/12/31 00:28:17;;;;;;;1.08;0.98;;;;;;;10.34;100.00;96543.44;1018475;29;20043;-69
2021/12/31 00:28:47;;;;;;;1.40;1.25;;;;;;;10.28;100.00;96539.16;1022976;29;20038;-65
2021/12/31 00:29:17;;;;;;;1.52;1.20;;;;;;;10.30;100.00;96541.56;1007309;29;20125;-66
2021/12/31 00:29:48;;;;;;;1.40;0.88;;;;;;;10.27;100.00;96542.03;1010887;29;20036;-66
2021/12/31 00:30:18;;;;;;;0.90;0.85;;;;;;;10.27;100.00;96539.41;1014143;29;20053;-67
2021/12/31 00:30:53;;;;;;;2.40;1.23;;;;;;;10.30;100.00;96546.78;1011382;29;20028;-68
2021/12/31 00:31:23;;;;;;;1.77;1.08;;;;;;;10.25;100.00;96538.81;1011130;29;20036;-67
2021/12/31 00:31:54;;;;;;;2.30;1.25;;;;;;;10.25;100.00;96538.81;1009401;29;20333;-66
2021/12/31 00:32:24;;;;;;;1.95;1.10;;;;;;;10.26;100.00;96540.41;1011882;29;20498;-67
2021/12/31 00:32:55;;;;;;;1.65;1.00;;;;;;;10.31;100.00;96540.50;1020063;28;20298;-66
2021/12/31 00:33:25;;;;;;;1.50;1.20;;;;;;;10.30;100.00;96544.97;1022818;29;20322;-69
2021/12/31 00:33:56;;;;;;;1.10;1.00;;;;;;;10.29;100.00;96539.94;1014972;29;20031;-67
2021/12/31 00:34:26;;;;;;;1.10;1.00;;;;;;;10.21;100.00;96542.94;1014705;29;20040;-64
2021/12/31 00:34:57;;;;;;;1.60;1.30;;;;;;;10.21;100.00;96532.47;1023007;29;20042;-67
2021/12/31 00:35:31;;;;;;;2.17;1.20;;;;;;;10.26;100.00;96545.66;1019882;29;20028;-68
2021/12/31 00:36:01;;;;;;;1.50;1.20;;;;;;;10.24;100.00;96543.25;1015040;29;20087;-67
2021/12/31 00:36:58;;;;;;;2.30;1.10;;;;;;;10.25;100.00;96547.47;1017094;29;20279;-66
2021/12/31 00:37:30;;;;;;;1.38;1.15;;;;;;;10.24;100.00;96542.47;1014646;29;20091;-69
2021/12/31 00:38:00;;;;;;;1.63;1.20;;;;;;;10.16;100.00;96527.94;1018982;29;20315;-66
2021/12/31 00:38:31;;;;;;;1.23;1.02;;;;;;;10.24;100.00;96542.47;1015254;29;20268;-67
2021/12/31 00:39:01;;;;;;;1.20;1.10;;;;;;;10.20;100.00;96544.78;1015058;29;20035;-67
2021/12/31 00:39:31;;;;;;;1.10;1.00;;;;;;;10.23;100.00;96543.50;1011346;29;20040;-70
2021/12/31 00:40:07;;;;;;;1.70;0.80;;;;;;;10.18;100.00;96538.97;1010710;29;20029;-66
2021/12/31 00:40:37;;;;;;;1.10;1.00;;;;;;;10.23;100.00;96540.88;1010731;29;20040;-66
2021/12/31 00:41:08;;;;;;;0.85;0.85;;;;;;;10.27;100.00;96552.53;1007352;29;20274;-66
2021/12/31 00:41:38;;;;;;;1.35;1.23;;;;;;;10.29;100.00;96553.06;1010291;29;20123;-68
2021/12/31 00:42:11;;;;;;;1.20;1.10;;;;;;;10.27;100.00;96553.31;1010563;29;20630;-67
2021/12/31 00:42:42;;;;;;;1.40;1.20;;;;;;;10.29;100.00;96545.19;1014837;29;20332;-68
2021/12/31 00:43:12;;;;;;;1.52;1.30;;;;;;;10.28;100.00;96548.84;1007485;29;20060;-68
2021/12/31 00:43:43;;;;;;;1.20;1.10;;;;;;;10.26;100.00;96545.66;1006124;29;20475;-66
2021/12/31 00:44:14;;;;;;;3.30;1.27;;;;;;;10.20;100.00;96541.38;1006180;29;20029;-64
2021/12/31 00:44:44;;;;;;;1.77;1.27;;;;;;;10.20;100.00;96536.91;1006901;29;20036;-67
2021/12/31 00:45:17;;;;;;;1.67;1.10;;;;;;;10.29;100.00;96545.97;1009203;29;20025;-68
2021/12/31 00:45:48;;;;;;;3.10;1.33;;;;;;;10.28;100.00;96540.97;1015035;29;20028;-67
2021/12/31 00:46:18;;;;;;;1.20;1.10;;;;;;;10.24;100.00;96555.59;1018210;29;20268;-69
2021/12/31 00:46:49;;;;;;;2.10;1.20;;;;;;;10.25;100.00;96554.53;1015881;29;20035;-68
2021/12/31 00:47:19;;;;;;;1.55;1.00;;;;;;;10.22;100.00;96540.06;1018999;29;20099;-69
2021/12/31 00:47:49;;;;;;;3.50;1.08;;;;;;;10.29;100.00;96545.19;1019322;29;20092;-67
2021/12/31 00:48:20;;;;;;;1.70;1.20;;;;;;;10.25;100.00;96539.59;1018831;29;20038;-69
2021/12/31 00:48:53;;;;;;;2.28;1.20;;;;;;;10.24;100.00;96537.22;1007040;29;20041;-65
2021/12/31 00:49:24;;;;;;;2.25;1.35;;;;;;;10.25;100.00;96544.84;1007235;29;20317;-67
2021/12/31 00:49:54;;;;;;;1.13;0.93;;;;;;;10.25;100.00;96557.97;1003175;29;20500;-68
2021/12/31 00:50:24;;;;;;;1.20;1.10;;;;;;;10.27;100.00;96547.28;1005374;29;20468;-67
2021/12/31 00:50:56;;;;;;;2.67;1.30;;;;;;;10.27;100.00;96547.28;1010824;29;20044;-66
2021/12/31 00:51:27;;;;;;;3.67;1.20;;;;;;;10.27;100.00;96547.28;1003464;29;20499;-66
2021/12/31 00:51:57;;;;;;;1.20;0.90;;;;;;;10.21;100.00;96533.25;1003027;29;20271;-67
2021/12/31 00:52:27;;;;;;;1.20;0.80;;;;;;;10.29;100.00;96540.72;1015024;29;20068;-67
2021/12/31 00:52:58;;;;;;;1.55;1.10;;;;;;;10.26;100.00;96541.25;1015042;29;20028;-70
2021/12/31 00:53:28;;;;;;;1.15;1.00;;;;;;;10.29;100.00;96547.81;1014963;29;20043;-67
2021/12/31 00:53:59;;;;;;;0.88;0.88;;;;;;;10.27;100.00;96534.16;1019046;29;20039;-68
2021/12/31 00:54:30;;;;;;;1.52;0.90;;;;;;;10.30;100.00;96546.78;1011536;29;20073;-69
2021/12/31 00:55:00;;;;;;;1.20;1.10;;;;;;;10.29;100.00;96539.94;1007087;29;20028;-67
2021/12/31 00:55:31;;;;;;;2.45;1.10;;;;;;;10.22;100.00;96539.28;1018261;29;20027;-67
2021/12/31 00:56:01;;;;;;;1.60;1.15;;;;;;;10.22;100.00;96545.31;1014931;29;20032;-67
2021/12/31 00:56:32;;;;;;;1.15;1.05;;;;;;;10.23;100.00;96551.34;1015007;29;20033;-68
2021/12/31 00:57:06;;;;;;;1.33;1.00;;;;;;;10.15;100.00;96542.84;1014277;29;20114;-68
2021/12/31 00:57:36;;;;;;;3.17;1.33;;;;;;;10.17;100.00;96545.25;1015948;29;20784;-67
2021/12/31 00:58:07;;;;;;;0.80;0.80;;;;;;;10.21;100.00;96554.22;1015014;29;20020;-67
2021/12/31 00:58:37;;;;;;;1.58;1.00;;;;;;;10.17;100.00;96536.59;1011043;29;20032;-68
2021/12/31 00:59:08;;;;;;;1.42;1.08;;;;;;;10.15;100.00;96535.00;1010972;29;20024;-67
2021/12/31 00:59:39;;;;;;;3.15;1.25;;;;;;;10.19;100.00;96555.50;1010973;29;20490;-67
2021/12/31 01:00:12;;;;;;;0.82;0.80;;;;;;;10.17;100.00;96547.88;1018510;29;20032;-73
2021/12/31 01:00:43;;;;;;;1.23;1.00;;;;;;;10.20;100.00;96551.88;1011172;29;20778;-67
2021/12/31 01:01:18;;;;;;;2.35;1.23;;;;;;;10.20;100.00;96550.03;1010828;29;20391;-66
2021/12/31 01:01:51;;;;;;;1.52;1.10;;;;;;;10.15;100.00;96532.38;1011097;29;20650;-66
2021/12/31 01:02:24;;;;;;;1.10;1.00;;;;;;;10.23;100.00;96546.09;1012906;29;20264;-66
2021/12/31 01:02:54;;;;;;;1.30;1.20;;;;;;;10.24;100.00;96542.47;1010799;29;20301;-67
2021/12/31 01:03:25;;;;;;;2.03;1.10;;;;;;;10.20;100.00;96549.25;1007188;29;20276;-68
2021/12/31 01:03:56;;;;;;;2.03;1.20;;;;;;;10.21;100.00;96549.00;1008082;29;20387;-67
2021/12/31 01:04:26;;;;;;;2.95;1.25;;;;;;;10.19;100.00;96547.63;1015416;29;20366;-69
2021/12/31 01:04:57;;;;;;;1.98;1.30;;;;;;;10.17;100.00;96553.13;1011404;29;20441;-68
2021/12/31 01:05:27;;;;;;;1.00;1.00;;;;;;;10.16;100.00;96546.31;1011069;29;20487;-66
2021/12/31 01:05:58;;;;;;;1.30;1.20;;;;;;;10.15;100.00;96548.09;1014744;29;20024;-69
2021/12/31 01:06:28;;;;;;;1.00;0.90;;;;;;;10.18;100.00;96548.66;1008570;29;20504;-68
2021/12/31 01:06:59;;;;;;;1.42;1.00;;;;;;;10.18;100.00;96553.91;1015284;29;20023;-67
2021/12/31 01:07:29;;;;;;;1.17;0.85;;;;;;;10.14;100.00;96553.59;1008831;29;20342;-70
2021/12/31 01:08:00;;;;;;;2.78;1.40;;;;;;;10.13;100.00;96546.78;1015629;29;20572;-66
2021/12/31 01:08:30;;;;;;;1.42;1.10;;;;;;;10.12;100.00;96548.59;1014878;29;20083;-68
2021/12/31 01:09:01;;;;;;;3.38;1.52;;;;;;;10.12;100.00;96545.97;1015038;29;20383;-67
2021/12/31 01:09:31;;;;;;;2.78;1.23;;;;;;;10.13;100.00;96552.03;1011219;29;20028;-67
2021/12/31 01:10:03;;;;;;;1.75;1.10;;;;;;;10.12;100.00;96553.81;1006929;29;20029;-67
2021/12/31 01:10:33;;;;;;;1.10;1.00;;;;;;;10.08;100.00;96544.84;999775;29;20330;-66
2021/12/31 01:11:04;;;;;;;1.60;1.10;;;;;;;10.07;100.00;96543.28;1011323;29;20265;-67
2021/12/31 01:11:34;;;;;;;1.48;1.38;;;;;;;10.09;100.00;96549.09;1007150;29;20049;-67
2021/12/31 01:12:07;;;;;;;0.95;0.88;;;;;;;10.10;100.00;96550.66;1007272;29;20058;-68
2021/12/31 01:12:37;;;;;;;1.55;1.23;;;;;;;10.08;100.00;96559.78;1012913;29;20025;-67
2021/12/31 01:13:13;;;;;;;1.65;1.05;;;;;;;10.08;100.00;96550.09;1013184;29;20766;-67
2021/12/31 01:13:55;;;;;;;3.35;1.38;;;;;;;10.08;100.00;96551.94;1011890;29;20031;-68
2021/12/31 01:15:06;;;;;;;2.53;1.05;;;;;;;10.01;100.00;96549.47;1014930;29;20327;-68
2021/12/31 01:15:43;;;;;;;3.08;1.23;;;;;;;10.06;100.00;96554.00;1014669;29;20280;-67
2021/12/31 01:16:15;;;;;;;1.02;0.85;;;;;;;10.02;100.00;96545.00;1011575;29;20766;-66
2021/12/31 01:16:56;;;;;;;1.23;0.93;;;;;;;10.08;100.00;96552.72;1018151;29;20638;-68
2021/12/31 01:18:22;;;;;;;1.88;1.10;;;;;;;10.04;100.00;96554.25;1026286;28;20278;-68
2021/12/31 01:19:55;;;;;;;2.03;1.33;;;;;;;10.04;100.00;96559.47;1013873;29;20122;-67
2021/12/31 01:20:25;;;;;;;1.73;1.40;;;;;;;9.97;100.00;96543.13;1010159;29;20975;-67
2021/12/31 01:20:56;;;;;;;1.38;1.10;;;;;;;10.05;100.00;96561.06;1010589;29;20040;-66
2021/12/31 01:21:26;;;;;;;1.65;1.30;;;;;;;10.05;100.00;96555.03;1010400;29;20040;-67
2021/12/31 01:21:57;;;;;;;2.85;1.30;;;;;;;10.00;100.00;96553.13;1010216;29;20035;-67
2021/12/31 01:22:30;;;;;;;1.23;1.13;;;;;;;10.01;100.00;96548.69;1002763;29;20037;-65
2021/12/31 01:23:08;;;;;;;3.35;1.10;;;;;;;10.04;100.00;96554.25;1012054;29;20033;-67
2021/12/31 01:23:41;;;;;;;2.28;1.20;;;;;;;9.94;100.00;96543.59;1005268;29;20815;-67
2021/12/31 01:24:12;;;;;;;2.08;1.13;;;;;;;10.02;100.00;96558.91;1002631;29;20398;-67
2021/12/31 01:24:43;;;;;;;1.15;0.90;;;;;;;10.00;100.00;96558.38;1009933;29;20039;-67
2021/12/31 01:25:13;;;;;;;1.63;1.25;;;;;;;10.00;100.00;96561.00;1010179;29;20083;-65
2021/12/31 01:25:44;;;;;;;2.80;1.10;;;;;;;9.93;100.00;96547.25;1014840;29;20846;-67
2021/12/31 01:26:14;;;;;;;1.13;1.02;;;;;;;10.02;100.00;96566.78;1016264;29;20088;-66
2021/12/31 01:26:45;;;;;;;1.88;1.20;;;;;;;10.04;100.00;96559.47;1012710;29;20027;-67
2021/12/31 01:27:16;;;;;;;1.50;0.82;;;;;;;9.97;100.00;96553.59;1002882;29;20038;-67
2021/12/31 01:27:46;;;;;;;1.20;1.10;;;;;;;10.01;100.00;96570.44;1007485;29;20446;-67
2021/12/31 01:28:18;;;;;;;2.60;0.90;;;;;;;9.99;100.00;96559.38;1014130;29;20502;-67
2021/12/31 01:28:48;;;;;;;2.70;1.10;;;;;;;10.02;100.00;96561.53;1015123;29;20048;-67
2021/12/31 01:29:18;;;;;;;2.70;1.00;;;;;;;9.97;100.00;96548.38;1018182;29;20263;-67
2021/12/31 01:29:49;;;;;;;1.67;1.02;;;;;;;9.95;100.00;96550.41;1013926;29;20097;-67
2021/12/31 01:30:19;;;;;;;0.85;0.85;;;;;;;10.05;100.00;96561.06;1010762;29;20399;-67
2021/12/31 01:30:50;;;;;;;2.03;1.20;;;;;;;10.03;100.00;96564.97;1010498;29;20518;-67
2021/12/31 01:31:21;;;;;;;1.50;0.95;;;;;;;10.01;100.00;96559.16;1015014;29;20028;-67
2021/12/31 01:31:54;;;;;;;2.05;0.80;;;;;;;10.02;100.00;96566.00;1020514;29;20035;-67
2021/12/31 01:32:25;;;;;;;1.67;0.82;;;;;;;9.96;100.00;96557.28;1009904;29;20287;-68
2021/12/31 01:32:56;;;;;;;1.70;1.00;;;;;;;10.01;100.00;96572.28;1014455;29;20363;-66
2021/12/31 01:33:26;;;;;;;0.98;0.98;;;;;;;9.99;100.00;96572.50;1014981;29;20108;-67
2021/12/31 01:33:56;;;;;;;2.25;1.00;;;;;;;10.01;100.00;96569.66;1015378;29;20514;-67
2021/12/31 01:34:27;;;;;;;1.30;0.82;;;;;;;9.98;100.00;96567.50;1022640;28;20593;-66
2021/12/31 01:34:57;;;;;;;2.00;1.10;;;;;;;9.98;100.00;96570.91;1015054;29;20391;-66
2021/12/31 01:35:28;;;;;;;1.05;0.77;;;;;;;9.98;100.00;96576.16;1018350;29;20042;-66
2021/12/31 01:35:58;;;;;;;1.80;1.00;;;;;;;9.94;100.00;96569.81;1014981;29;20064;-67
2021/12/31 01:36:29;;;;;;;0.98;0.80;;;;;;;9.97;100.00;96565.94;1017085;29;20027;-65
2021/12/31 01:36:59;;;;;;;1.90;1.10;;;;;;;9.95;100.00;96571.38;1019120;29;20036;-67
2021/12/31 01:37:35;;;;;;;1.10;1.05;;;;;;;9.97;100.00;96574.59;1015348;29;20530;-66
2021/12/31 01:38:06;;;;;;;4.28;1.25;;;;;;;9.96;100.00;96566.94;1019215;29;20323;-68
2021/12/31 01:38:36;;;;;;;0.95;0.88;;;;;;;9.89;100.00;96556.59;1018610;29;20307;-67
2021/12/31 01:39:07;;;;;;;3.95;0.98;;;;;;;9.96;100.00;96567.75;1011785;29;20029;-67
2021/12/31 01:39:37;;;;;;;0.98;0.88;;;;;;;9.98;100.00;96565.66;1015951;29;20083;-65
2021/12/31 01:40:09;;;;;;;1.05;0.90;;;;;;;10.00;100.00;96568.88;1018045;29;20464;-65
2021/12/31 01:40:39;;;;;;;1.23;0.68;;;;;;;9.97;100.00;96566.72;1011151;29;20017;-67
2021/12/31 01:41:10;;;;;;;1.15;1.02;;;;;;;9.95;100.00;96565.34;1015051;29;20272;-66
2021/12/31 01:41:40;;;;;;;0.85;0.70;;;;;;;9.96;100.00;96573.00;1018400;29;20502;-67
2021/12/31 01:42:13;;;;;;;3.13;1.08;;;;;;;9.88;100.00;96558.44;1015153;29;20465;-67
2021/12/31 01:42:44;;;;;;;1.85;1.10;;;;;;;9.92;100.00;96566.63;1015554;29;20046;-66
2021/12/31 01:43:15;;;;;;;1.50;1.15;;;;;;;9.95;100.00;96566.16;1011125;29;20759;-64
2021/12/31 01:43:46;;;;;;;1.75;1.00;;;;;;;9.88;100.00;96560.25;1011508;29;20107;-66
2021/12/31 01:44:16;;;;;;;1.70;0.90;;;;;;;9.94;100.00;96567.19;1015058;29;20262;-67
2021/12/31 01:44:55;;;;;;;0.80;0.70;;;;;;;9.96;100.00;96564.31;1015336;29;20020;-67
2021/12/31 01:45:30;;;;;;;1.30;1.10;;;;;;;9.89;100.00;96561.84;1014543;29;20115;-66
2021/12/31 01:46:10;;;;;;;1.77;0.90;;;;;;;9.88;100.00;96557.66;1013093;29;20273;-67
2021/12/31 01:46:57;;;;;;;1.08;1.00;;;;;;;9.94;100.00;96569.00;1014686;29;21179;-66
2021/12/31 01:47:35;;;;;;;0.82;0.82;;;;;;;9.94;100.00;96567.19;1015188;29;20028;-66
2021/12/31 01:48:08;;;;;;;1.58;1.27;;;;;;;9.95;100.00;96568.75;1018721;29;20740;-66
2021/12/31 01:49:33;;;;;;;1.83;1.17;;;;;;;9.90;100.00;96566.06;1014985;29;20270;-67
2021/12/31 01:50:08;;;;;;;0.80;0.80;;;;;;;9.84;100.00;96562.56;1014377;29;20272;-65
2021/12/31 01:50:39;;;;;;;1.00;0.90;;;;;;;9.94;100.00;96569.00;1014995;29;20646;-67
2021/12/31 01:51:10;;;;;;;1.20;1.00;;;;;;;9.90;100.00;96568.69;1018773;29;20693;-67
2021/12/31 01:51:40;;;;;;;2.05;0.90;;;;;;;9.91;100.00;96572.91;1018878;29;20259;-67
2021/12/31 01:52:11;;;;;;;1.00;0.90;;;;;;;9.89;100.00;96581.00;1018977;29;20394;-66
2021/12/31 01:52:41;;;;;;;2.53;1.05;;;;;;;9.91;100.00;96576.31;1018879;29;20426;-67
2021/12/31 01:53:13;;;;;;;2.05;1.13;;;;;;;9.95;100.00;96575.84;1019411;29;20031;-66
2021/12/31 01:53:44;;;;;;;1.17;1.00;;;;;;;9.93;100.00;96576.09;1015236;29;20040;-64
2021/12/31 01:54:14;;;;;;;0.70;0.70;;;;;;;9.94;100.00;96572.44;1011322;29;20265;-66
2021/12/31 01:54:45;;;;;;;1.23;1.05;;;;;;;9.94;100.00;96575.06;1011050;29;20095;-66
2021/12/31 01:55:15;;;;;;;2.28;0.85;;;;;;;9.94;100.00;96574.25;1011832;29;20033;-67
2021/12/31 01:55:46;;;;;;;1.33;0.98;;;;;;;9.94;100.00;96579.50;1015869;29;20084;-66
2021/12/31 01:56:17;;;;;;;1.20;0.95;;;;;;;9.94;100.00;96582.91;1007981;29;20021;-65
2021/12/31 01:56:47;;;;;;;1.10;0.90;;;;;;;9.98;100.00;96576.16;1007898;29;20013;-66
2021/12/31 01:57:18;;;;;;;1.10;0.90;;;;;;;9.99;100.00;96577.75;1015180;29;20284;-66
2021/12/31 01:57:49;;;;;;;0.93;0.90;;;;;;;9.97;100.00;96560.69;1015436;29;20020;-66
2021/12/31 01:58:21;;;;;;;0.70;0.70;;;;;;;10.07;100.00;96574.75;1008129;29;20093;-67
2021/12/31 01:58:53;;;;;;;1.67;1.08;;;;;;;10.06;100.00;96567.09;1009264;29;20304;-67
2021/12/31 01:59:24;;;;;;;0.90;0.90;;;;;;;10.11;100.00;96578.47;1007810;29;20283;-65
2021/12/31 01:59:54;;;;;;;1.58;1.10;;;;;;;10.06;100.00;96573.16;1004587;29;20266;-67
2021/12/31 02:00:25;;;;;;;0.98;0.90;;;;;;;10.12;100.00;96582.66;1007545;29;20447;-65
2021/12/31 02:00:55;;;;;;;1.67;0.93;;;;;;;10.15;100.00;96576.16;1008140;29;20021;-66
2021/12/31 02:01:26;;;;;;;1.05;0.95;;;;;;;10.17;100.00;96578.56;1008381;29;20025;-67
2021/12/31 02:01:57;;;;;;;1.05;0.98;;;;;;;10.14;100.00;96580.63;1016142;29;20097;-67
2021/12/31 02:02:27;;;;;;;1.35;0.75;;;;;;;10.03;100.00;96567.59;1015629;29;20490;-66
2021/12/31 02:02:58;;;;;;;0.90;0.90;;;;;;;10.10;100.00;96579.50;1012209;29;20032;-68
2021/12/31 02:03:28;;;;;;;2.00;1.00;;;;;;;10.10;100.00;96579.50;1008172;29;20057;-65
2021/12/31 02:03:59;;;;;;;1.27;0.88;;;;;;;10.01;100.00;96567.81;1013125;29;20052;-66
2021/12/31 02:04:30;;;;;;;1.63;0.73;;;;;;;10.06;100.00;96577.59;1011686;29;20596;-67
2021/12/31 02:05:02;;;;;;;4.18;1.20;;;;;;;10.06;100.00;96573.16;1011976;29;20279;-67
2021/12/31 02:05:32;;;;;;;1.42;0.93;;;;;;;10.06;100.00;96581.03;1011700;29;20925;-67
2021/12/31 02:06:04;;;;;;;1.10;1.00;;;;;;;9.98;100.00;96568.28;1011991;29;20265;-67
2021/12/31 02:06:34;;;;;;;1.98;1.20;;;;;;;10.06;100.00;96573.16;1012446;29;20036;-66
2021/12/31 02:07:05;;;;;;;1.45;1.00;;;;;;;10.08;100.00;96580.78;1012186;29;20727;-67
2021/12/31 02:07:36;;;;;;;3.35;0.93;;;;;;;10.07;100.00;96568.72;1010801;29;20032;-66
2021/12/31 02:08:06;;;;;;;1.95;1.23;;;;;;;10.06;100.00;96573.16;1011955;29;20032;-66
2021/12/31 02:08:37;;;;;;;1.20;1.00;;;;;;;10.04;100.00;96571.81;1011988;29;20287;-67
2021/12/31 02:09:07;;;;;;;1.05;0.82;;;;;;;10.06;100.00;96572.34;1011817;29;20028;-66
2021/12/31 02:09:45;;;;;;;0.85;0.85;;;;;;;10.01;100.00;96575.69;1015491;29;20024;-66
2021/12/31 02:10:15;;;;;;;1.20;0.70;;;;;;;10.01;100.00;96569.66;1012151;29;20087;-66
2021/12/31 02:10:51;;;;;;;1.10;0.93;;;;;;;9.94;100.00;96569.81;1015662;29;20678;-67
2021/12/31 02:11:22;;;;;;;1.30;0.90;;;;;;;9.90;100.00;96559.00;1011922;29;20241;-67
2021/12/31 02:11:54;;;;;;;1.05;0.77;;;;;;;9.96;100.00;96570.38;1008663;29;20284;-67
2021/12/31 02:12:24;;;;;;;1.00;0.85;;;;;;;9.95;100.00;96571.38;1012047;29;20033;-67
2021/12/31 02:12:54;;;;;;;2.95;0.93;;;;;;;9.96;100.00;96574.81;1011823;29;20841;-66
2021/12/31 02:13:25;;;;;;;2.28;1.00;;;;;;;9.96;100.00;96574.81;1007844;29;20149;-66
2021/12/31 02:13:56;;;;;;;2.55;1.00;;;;;;;9.97;100.00;96574.59;1011807;29;20202;-66
2021/12/31 02:14:27;;;;;;;0.80;0.80;;;;;;;9.91;100.00;96567.66;1014906;29;20071;-67
2021/12/31 02:14:57;;;;;;;2.22;0.80;;;;;;;9.99;100.00;96567.25;1016232;29;20537;-66
2021/12/31 02:15:30;;;;;;;0.82;0.82;;;;;;;9.93;100.00;96567.44;1016178;29;20283;-67
2021/12/31 02:16:00;;;;;;;1.00;0.90;;;;;;;9.95;100.00;96565.34;1008242;29;20127;-67
2021/12/31 02:16:31;;;;;;;1.00;0.88;;;;;;;9.96;100.00;96567.75;1016052;29;20662;-67
2021/12/31 02:17:07;;;;;;;2.72;0.90;;;;;;;9.96;100.00;96569.56;1008314;29;20123;-68
2021/12/31 02:17:37;;;;;;;1.17;1.00;;;;;;;10.00;100.00;96578.56;1006319;29;20124;-68
2021/12/31 02:18:09;;;;;;;1.85;0.95;;;;;;;9.96;100.00;96567.75;1008516;29;20280;-67
2021/12/31 02:18:43;;;;;;;1.90;0.73;;;;;;;9.96;100.00;96573.00;1011831;29;20320;-67
2021/12/31 02:19:14;;;;;;;2.15;0.90;;;;;;;9.99;100.00;96571.72;1020858;29;20283;-67
2021/12/31 02:20:00;;;;;;;1.77;1.17;;;;;;;9.88;100.00;96568.91;1023919;28;20271;-65
2021/12/31 02:20:43;;;;;;;1.92;1.05;;;;;;;9.94;100.00;96572.44;1015996;29;20351;-67
2021/12/31 02:21:14;;;;;;;1.23;0.90;;;;;;;9.96;100.00;96578.25;1015500;29;20283;-66
2021/12/31 02:21:45;;;;;;;1.17;1.00;;;;;;;9.97;100.00;96574.59;1019518;29;20275;-66
2021/12/31 02:22:17;;;;;;;0.93;0.88;;;;;;;9.96;100.00;96583.47;1021517;29;20271;-66
2021/12/31 02:22:55;;;;;;;0.80;0.80;;;;;;;9.94;100.00;96576.88;1023516;28;20059;-67
2021/12/31 02:23:32;;;;;;;2.25;1.00;;;;;;;9.87;100.00;96569.16;1022283;29;20951;-67
2021/12/31 02:24:06;;;;;;;2.00;1.08;;;;;;;9.93;100.00;96577.91;1019577;29;20271;-67
2021/12/31 02:24:37;;;;;;;1.20;1.05;;;;;;;9.93;100.00;96578.72;1019407;29;20745;-67
2021/12/31 02:25:07;;;;;;;0.90;0.80;;;;;;;9.93;100.00;96572.69;1015609;29;20268;-67
2021/12/31 02:25:39;;;;;;;1.20;1.10;;;;;;;9.86;100.00;96570.22;1017062;29;20020;-66
2021/12/31 02:26:10;;;;;;;1.27;1.15;;;;;;;9.92;100.00;96579.72;1009811;29;20041;-66
2021/12/31 02:26:41;;;;;;;1.20;0.90;;;;;;;9.91;100.00;96576.31;1007661;29;20281;-66
2021/12/31 02:27:11;;;;;;;1.35;1.08;;;;;;;9.90;100.00;96571.31;1008310;29;20053;-67
2021/12/31 02:27:41;;;;;;;1.45;1.10;;;;;;;9.90;100.00;96569.50;1015629;29;20044;-66
2021/12/31 02:28:12;;;;;;;0.75;0.75;;;;;;;9.90;100.00;96566.06;1019719;29;20219;-66
2021/12/31 02:28:42;;;;;;;1.35;0.90;;;;;;;9.95;100.00;96571.38;1019334;29;20035;-67
2021/12/31 02:29:13;;;;;;;1.00;0.90;;;;;;;10.00;100.00;96568.88;1015598;29;20064;-64
2021/12/31 02:29:43;;;;;;;1.02;0.93;;;;;;;9.99;100.00;96571.72;1011669;29;20435;-67
2021/12/31 02:30:14;;;;;;;3.58;1.13;;;;;;;9.99;100.00;96569.88;1008771;29;20488;-66
2021/12/31 02:30:44;;;;;;;3.63;1.10;;;;;;;9.94;100.00;96563.78;1008024;29;20044;-67
2021/12/31 02:31:15;;;;;;;2.97;1.08;;;;;;;10.00;100.00;96574.09;1007766;29;20025;-67